Tiempo atmosférico en la estación meteorológica de Aliseda, Cáceres (321 m.)



Fecha
DESCASC
Temp. máxima en grados centígrados (hora)
DESCASC
Temp. mínima en grados centígrados (hora)
DESCASC
Temp. media en grados centígrados
DESCASC
Racha de viento máxima en m/sg (hora)
DESCASC
Velocidad máxima media en intervalos de 10 minutos(hora)
DESCASC
Precipitaciones diarias en mm
DESCASC
Precipitaciones de 00:00 a 06:00 en mm
DESCASC
Precipitaciones de 06:00 a 12:00 en mm
DESCASC
Precipitaciones de 12:00 a 18:00 en mm
DESCASC
Precipitaciones de 18:00 a 24:00 en mm
DESCASC
18-01-2018 14.6 (16:50) 1.6 (08:20) 8.1 4.17 (16:30) 2.5 (16:30) 0 0 0 0 0
17-01-2018 16.7 (15:40) 6.3 (09:20) 11.5 6.11 (15:00) 3.06 (12:50) 0 0 0 0 0
16-01-2018 14.2 (17:10) 2.7 (09:10) 8.4 5.28 (14:10) 3.61 (14:10) 0 0 0 0 0
15-01-2018 11.8 (16:50) -1 (08:40) 5.4 4.17 (21:20) 3.06 (21:30) 0 0 0 0 0
14-01-2018 8.6 (14:40) 2.5 (00:00) 5.6 6.11 (04:50) 4.44 (04:00) 0.2 0.2 0 0 0
13-01-2018 8.9 (15:40) 1.9 (00:00) 5.4 12.78 (11:50) 8.61 (11:50) 7.2 0 6.8 0.2 0.2
12-01-2018 10.7 (15:00) -0.8 (-00:0) 4.9 6.11 (00:30) 4.17 (01:10) 0 0 0 0 0
11-01-2018 12.6 (14:50) 4.6 (00:00) 8.6 10.83 (11:30) 6.11 (08:20) 0 0 0 0 0
10-01-2018 11.9 (15:30) 5.8 (00:00) 8.8 11.67 (18:50) 7.22 (19:00) 1.4 0 0 1.4 0
09-01-2018 8.4 (19:50) -0.3 (00:00) 4 12.22 (11:20) 6.67 (12:00) 4.6 0 0.4 2 2.2
08-01-2018 9.3 (16:20) 1.8 (00:00) 5.6 5.56 (03:50) 3.33 (04:50) 2.2 2.2 0 0 0
07-01-2018 8.5 (14:00) 4 (00:00) 6.3 7.78 (00:40) 4.17 (04:40) 6.6 0 0 0 6.6
06-01-2018 9.9 (16:10) 4.2 (00:00) 7 10 (15:50) 5.83 (16:40) 0.2 0 0 0.2 0
05-01-2018 12.5 (00:00) 7.6 (00:00) 10 13.61 (08:30) 8.33 (08:10) 17.2 0 0.8 7.8 8.6
04-01-2018 15.7 (14:50) 6.1 (09:00) 10.9 8.33 (15:00) 5.28 (15:00) 0 0 0 0 0
03-01-2018 16.3 (16:50) 12.1 (00:00) 14.2 6.39 (00:20) 4.17 (00:30) 0 0 0 0 0
02-01-2018 14.2 (16:30) 8.9 (00:00) 11.5 9.17 (14:30) 5.83 (15:10) 0 0 0 0 0
01-01-2018 13.9 (14:30) 0.8 (00:00) 7.3 9.72 (13:50) 6.11 (13:40) 0 0 0 0 0
31-12-2017 13.5 (15:10) 8.7 (00:00) 11.1 13.89 (15:40) 8.89 (15:40) 1.8 0 0 1.8 0
30-12-2017 17.4 (14:10) 9.9 (00:00) 13.6 6.11 (04:30) 3.61 (08:00) 0 0 0 0 0
29-12-2017 16.3 (14:10) 12.8 (00:00) 14.5 10.28 (12:40) 6.67 (12:40) 0 0 0 0 0
28-12-2017 17 (15:30) 10.2 (00:00) 13.6 15.83 (14:40) 9.72 (13:10) 0 0 0 0 0
27-12-2017 13.3 (14:50) 9.7 (00:00) 11.5 18.33 (01:20) 9.72 (01:30) 1.4 1.4 0 0 0
26-12-2017 11.1 (23:50) 6.1 (00:00) 8.6 13.06 (23:00) 7.5 (23:00) 0 0 0 0 0
25-12-2017 11.9 (17:20) 3.1 (00:00) 7.5 9.72 (23:10) 5.56 (15:10) 1.2 0 0.6 0.2 0.4
24-12-2017 13.3 (14:30) 1.3 (00:00) 7.3 3.89 (13:00) 2.5 (18:10) 0 0 0 0 0
23-12-2017 14.6 (15:50) -0.5 (-00:0) 7.1 3.61 (16:40) 2.22 (13:50) 0 0 0 0 0
22-12-2017 16.9 (16:20) -0.4 (00:00) 8.2 4.72 (14:10) 3.33 (14:10) 0 0 0 0 0
21-12-2017 15.3 (16:10) 0.1 (00:00) 7.7 3.89 (16:50) 2.22 (11:20) 0 0 0 0 0

Gráficas

Temp. máximas Temp. mínimas Temp. medias Precipitaciones Rachas de viento máximas Velocidades máximas media en intervalos de 10 minutos

Datos horarios

Fecha y hora oficial Temperatura (ºC) Velocidad del viento (km/h) Dirección del viento Racha (km/h) Dirección de racha Precipitación (mm) Presión (hPa) Tendencia (hPa) Humedad (%)
2018-01-19 23:00:00 8.1 2 Sudeste 8 Sur 0 -- -- 75
2018-01-19 22:00:00 8 4 Sur 12 Oeste 0 -- -- 76
2018-01-19 21:00:00 9.9 4 Sudoeste 13 Oeste 0 -- -- 70
2018-01-19 20:00:00 10.8 2 Sur 13 Oeste 0 -- -- 67
2018-01-19 19:00:00 11.5 7 Oeste 10 Oeste 0 -- -- 67
2018-01-19 18:00:00 15.2 3 Oeste 20 Noroeste 0 -- -- 53
2018-01-19 17:00:00 17.5 13 Noroeste 23 Noroeste 0 -- -- 45
2018-01-19 16:00:00 17 13 Noroeste 21 Norte 0 -- -- 53
2018-01-19 15:00:00 16.2 8 Norte 18 Noroeste 0 -- -- 55
2018-01-19 14:00:00 14.6 8 Noroeste 18 Noroeste 0 -- -- 63
2018-01-19 13:00:00 13 7 Noroeste 12 Noroeste 0 -- -- 66
2018-01-19 12:00:00 10.6 6 Sudoeste 13 Noroeste 0 -- -- 73
2018-01-19 11:00:00 9.1 3 Oeste 9 Oeste 0 -- -- 77
2018-01-19 10:00:00 6 3 Oeste 8 Sudoeste 0 -- -- 87
2018-01-19 09:00:00 3.3 2 Oeste 5 Oeste 0 -- -- 92
2018-01-19 08:00:00 3.5 3 Oeste 6 Oeste 0 -- -- 90
2018-01-19 07:00:00 3.8 6 Oeste 9 Oeste 0 -- -- 88
2018-01-19 06:00:00 5.5 4 Sudoeste 12 Sudoeste 0 -- -- 84
2018-01-19 05:00:00 5 3 Sudoeste 8 Oeste 0 -- -- 86
2018-01-19 04:00:00 6.6 3 Sudoeste 16 Sudoeste 0 -- -- 79
2018-01-19 03:00:00 6.3 5 Sudoeste 14 Sudoeste 0 -- -- 82
2018-01-19 02:00:00 5.1 3 Sudoeste 6 Sudoeste 0 -- -- 84
2018-01-19 01:00:00 5.7 0 Calma 6 Sudoeste 0 -- -- 82
2018-01-19 00:00:00 5.6 2 Sudoeste 6 Sudeste 0 -- -- 85
2018-01-18 23:00:00 5.4 2 Oeste 6 Sur 0 -- -- 87
2018-01-18 22:00:00 5.7 0 Calma 5 Sur 0 -- -- 86
2018-01-18 21:00:00 6.4 0 Calma 5 Sudoeste 0 -- -- 84
2018-01-18 20:00:00 7.2 2 Sur 8 Sur 0 -- -- 80
2018-01-18 19:00:00 8.1 4 Sur 6 Sur 0 -- -- 78
2018-01-18 18:00:00 12.3 3 Sudeste 14 Nordeste 0 -- -- 61
2018-01-18 17:00:00 14.5 5 Nordeste 15 Nordeste 0 -- -- 55
2018-01-18 16:00:00 14.4 6 Nordeste 14 Nordeste 0 -- -- 53
2018-01-18 15:00:00 13.7 5 Nordeste 12 Nordeste 0 -- -- 57
2018-01-18 14:00:00 12.3 4 Norte 11 Este 0 -- -- 66
2018-01-18 13:00:00 10.6 6 Este 14 Este 0 -- -- 73
2018-01-18 12:00:00 9 5 Este 12 Este 0 -- -- 78
2018-01-18 11:00:00 6.1 0 Calma -- -- 0 -- -- 94
2018-01-18 10:00:00 3.6 0 Calma 3 Sudeste 0 -- -- 99
2018-01-18 09:00:00 1.6 0 Calma 4 Sur 0 -- -- 97
2018-01-18 08:00:00 1.8 0 Calma 5 Sur 0 -- -- 96
2018-01-18 07:00:00 2.4 0 Calma 4 Sur 0 -- -- 96
2018-01-18 06:00:00 3.3 0 Calma 5 Oeste 0 -- -- 95
2018-01-18 05:00:00 4.4 0 Calma 5 Sudeste 0 -- -- 96
2018-01-18 04:00:00 4.3 3 Noroeste 6 Oeste 0 -- -- 95
2018-01-18 03:00:00 4.2 2 Sur 6 Sur 0 -- -- 96
2018-01-18 02:00:00 4.6 0 Calma 5 Oeste 0 -- -- 94
2018-01-18 01:00:00 5.4 3 Oeste 6 Sudeste 0 -- -- 92
2018-01-18 00:00:00 6.5 4 Este 6 Este 0 -- -- 93
2018-01-17 23:00:00 8.1 2 Este 13 Sudeste 0 -- -- 87
2018-01-17 22:00:00 8.5 6 Este 10 Este 0 -- -- 87
2018-01-17 21:00:00 9 5 Este 8 Este 0 -- -- 88
2018-01-17 20:00:00 9.8 0 Calma 11 Sudeste 0 -- -- 77
2018-01-17 19:00:00 10.1 6 Sur 8 Sur 0 -- -- 77
2018-01-17 18:00:00 13.8 0 Calma 13 Norte 0 -- -- 62
2018-01-17 17:00:00 16.7 5 Nordeste 14 Nordeste 0 -- -- 53
2018-01-17 16:00:00 16.7 7 Norte 21 Noroeste 0 -- -- 53
2018-01-17 15:00:00 16.1 9 Norte 22 Norte 0 -- -- 54
2018-01-17 14:00:00 15.3 9 Noroeste 18 Noroeste 0 -- -- 59
2018-01-17 13:00:00 13.1 10 Noroeste 19 Noroeste 0 -- -- 77
2018-01-17 12:00:00 12 8 Noroeste 16 Oeste 0 -- -- 81
2018-01-17 11:00:00 9.6 3 Sudoeste 7 Oeste 0 -- -- 92
2018-01-17 10:00:00 7.6 0 Calma 8 Sudoeste 0 -- -- 99
2018-01-17 09:00:00 6.5 3 Sudoeste 6 Oeste 0 -- -- 99
2018-01-17 08:00:00 6.8 2 Sudoeste 10 Sudoeste 0 -- -- 99
2018-01-17 07:00:00 6.8 3 Sudoeste 8 Sudoeste 0 -- -- 99
2018-01-17 06:00:00 6.9 0 Calma 10 Noroeste 0 -- -- 99
2018-01-17 05:00:00 7.5 4 Oeste 10 Oeste 0 -- -- 99
2018-01-17 04:00:00 8.6 3 Noroeste 8 Noroeste 0 -- -- 99
2018-01-17 03:00:00 8.7 3 Oeste 9 Oeste 0 -- -- 98
2018-01-17 02:00:00 9 4 Oeste 10 Noroeste 0 -- -- 98
2018-01-17 01:00:00 9.4 5 Noroeste 12 Noroeste 0 -- -- 98
2018-01-17 00:00:00 9.6 4 Norte 14 Oeste 0 -- -- 96
2018-01-16 23:00:00 10.6 9 Oeste 14 Oeste 0 -- -- 98
2018-01-16 22:00:00 10.4 9 Oeste 14 Oeste 0 -- -- 98
2018-01-16 21:00:00 9.9 8 Sudoeste 14 Sudoeste 0 -- -- 97
2018-01-16 20:00:00 9.2 6 Oeste 10 Oeste 0 -- -- 95
2018-01-16 19:00:00 9.5 5 Sudoeste 9 Oeste 0 -- -- 92
2018-01-16 18:00:00 12.1 5 Oeste 9 Oeste 0 -- -- 85
2018-01-16 17:00:00 14.1 6 Oeste 12 Oeste 0 -- -- 81
2018-01-16 16:00:00 12.7 6 Oeste 16 Oeste 0 -- -- 87
2018-01-16 15:00:00 12.4 8 Noroeste 19 Oeste 0 -- -- 88
2018-01-16 14:00:00 13.8 11 Noroeste 18 Noroeste 0 -- -- 82
2018-01-16 13:00:00 12.6 8 Noroeste 13 Oeste 0 -- -- 76
2018-01-16 12:00:00 10.6 5 Oeste 9 Oeste 0 -- -- 77
2018-01-16 11:00:00 7.4 2 Norte 10 Sudoeste 0 -- -- 86
2018-01-16 10:00:00 4.6 4 Sudoeste 10 Sudoeste 0 -- -- 94
2018-01-16 09:00:00 2.8 0 Calma -- -- 0 -- -- 92
2018-01-16 08:00:00 3 0 Calma 4 Nordeste 0 -- -- 92
2018-01-16 07:00:00 3.3 3 Este 6 Este 0 -- -- 93
2018-01-16 06:00:00 3.3 0 Calma 7 Sudoeste 0 -- -- 89
2018-01-16 05:00:00 3.8 3 Sudeste 6 Sudeste 0 -- -- 91
2018-01-16 04:00:00 4.6 3 Sudeste 5 Este 0 -- -- 91
2018-01-16 03:00:00 4.5 2 Noroeste 8 Noroeste 0 -- -- 88
2018-01-16 02:00:00 3.9 0 Calma 5 Noroeste 0 -- -- 88
2018-01-16 01:00:00 4.1 0 Calma 5 Noroeste 0 -- -- 86
2018-01-16 00:00:00 3.9 0 Calma 5 Oeste 0 -- -- 85
2018-01-15 23:00:00 5.4 2 Este 14 Sur 0 -- -- 80
2018-01-15 22:00:00 5.7 2 Nordeste 15 Sudoeste 0 -- -- 77
2018-01-15 21:00:00 7.9 9 Sudoeste 13 Sudoeste 0 -- -- 69
2018-01-15 20:00:00 5.7 8 Sudoeste 10 Sur 0 -- -- 77
2018-01-15 19:00:00 5.3 4 Sudoeste 8 Sur 0 -- -- 77
2018-01-15 18:00:00 7.2 3 Oeste 6 Oeste 0 -- -- 72
2018-01-15 17:00:00 11.8 4 Oeste 9 Sudoeste 0 -- -- 55
2018-01-15 16:00:00 11.4 6 Oeste 11 Oeste 0 -- -- 55
2018-01-15 15:00:00 10.8 6 Oeste 12 Oeste 0 -- -- 62
2018-01-15 14:00:00 10.1 2 Sur 9 Este 0 -- -- 65
2018-01-15 13:00:00 8.4 4 Nordeste 9 Este 0 -- -- 68
2018-01-15 12:00:00 6.8 0 Calma 6 Noroeste 0 -- -- 76
2018-01-15 11:00:00 4.1 5 Oeste 9 Oeste 0 -- -- 83
2018-01-15 10:00:00 1.9 3 Sudoeste 6 Oeste 0 -- -- 95
2018-01-15 09:00:00 -0.3 3 Sudoeste 5 Sudoeste 0 -- -- 96
2018-01-15 08:00:00 0 0 Calma 6 Sur 0 -- -- 93
2018-01-15 07:00:00 0.5 3 Sudoeste 8 Sur 0 -- -- 93
2018-01-15 06:00:00 0.3 5 Sudoeste 8 Sudoeste 0 -- -- 93
2018-01-15 05:00:00 0.8 4 Sudoeste 6 Sudoeste 0 -- -- 91
2018-01-15 04:00:00 1.4 3 Sudoeste 9 Oeste 0 -- -- 91
2018-01-15 03:00:00 0.9 5 Sudoeste 9 Sudoeste 0 -- -- 95
2018-01-15 02:00:00 0.6 2 Sur 5 Sur 0 -- -- 93
2018-01-15 01:00:00 1.1 2 Sur 6 Sudeste 0 -- -- 89
2018-01-15 00:00:00 3.4 4 Sudeste 8 Sudeste 0 -- -- 82
2018-01-14 23:00:00 2.7 0 Calma 8 Norte 0 -- -- 87
2018-01-14 22:00:00 3.4 3 Sudeste 7 Sudeste 0 -- -- 85
2018-01-14 21:00:00 3.3 0 Calma 4 Sur 0 -- -- 89
2018-01-14 20:00:00 3.4 3 Sur 7 Sur 0 -- -- 89
2018-01-14 19:00:00 4.5 3 Sur 5 Sur 0 -- -- 86
2018-01-14 18:00:00 7.5 0 Calma 12 Norte 0 -- -- 77
2018-01-14 17:00:00 8.5 5 Norte 17 Norte 0 -- -- 68
2018-01-14 16:00:00 8.4 6 Noroeste 16 Noroeste 0 -- -- 71
2018-01-14 15:00:00 8.6 9 Noroeste 18 Oeste 0 -- -- 74
2018-01-14 14:00:00 7.8 3 Sudeste 13 Nordeste 0 -- -- 84
2018-01-14 13:00:00 6.4 4 Norte 12 Oeste 0 -- -- 89
2018-01-14 12:00:00 5.5 4 Oeste 11 Noroeste 0 -- -- 93
2018-01-14 11:00:00 5.5 6 Oeste 12 Oeste 0 -- -- 91
2018-01-14 10:00:00 3.9 3 Oeste 7 Oeste 0 -- -- 94
2018-01-14 09:00:00 4.2 0 Calma 9 Oeste 0 -- -- 90
2018-01-14 08:00:00 5.4 2 Noroeste 15 Sudoeste 0 -- -- 89
2018-01-14 07:00:00 6.2 9 Sudoeste 17 Sudoeste 0 -- -- 86
2018-01-14 06:00:00 6.3 11 Sudoeste 17 Sudoeste 0 -- -- 87
2018-01-14 05:00:00 5.8 13 Sudoeste 22 Sudoeste 0 -- -- 90
2018-01-14 04:00:00 6.2 16 Sudoeste 21 Sudoeste 0 -- -- 88
2018-01-14 03:00:00 5.9 15 Sudoeste 21 Sudoeste 0 -- -- 91
2018-01-14 02:00:00 6.5 14 Sudoeste 21 Sudoeste 0 -- -- 90
2018-01-14 01:00:00 6.5 11 Sudoeste 19 Sudoeste 0.2 -- -- 89
2018-01-14 00:00:00 6.2 12 Sudoeste 15 Sudoeste 0 -- -- 91
2018-01-13 23:00:00 6.4 3 Oeste 36 Oeste 0.2 -- -- 89
2018-01-13 22:00:00 7.2 15 Sudoeste 26 Sudoeste 0 -- -- 86
2018-01-13 21:00:00 7.5 15 Sudoeste 24 Sudoeste 0 -- -- 84
2018-01-13 20:00:00 7.4 11 Sudoeste 18 Oeste 0 -- -- 84
2018-01-13 19:00:00 7.1 12 Sudoeste 22 Sudoeste 0 -- -- 87
2018-01-13 18:00:00 8.1 9 Sudoeste 17 Sudoeste 0 -- -- 88
2018-01-13 17:00:00 8.3 0 Calma 14 Oeste 0.2 -- -- 91
2018-01-13 16:00:00 8.7 9 Noroeste 19 Oeste 0 -- -- 86
2018-01-13 15:00:00 8.6 13 Noroeste 25 Noroeste 0 -- -- 88
2018-01-13 14:00:00 7.4 11 Oeste 24 Sur 0 -- -- 94
2018-01-13 13:00:00 7 17 Sur 42 Sur 0 -- -- 94
2018-01-13 12:00:00 7.2 29 Sur 46 Sur 0.8 -- -- 92
2018-01-13 11:00:00 7 16 Sudeste 37 Sudeste 0.2 -- -- 91
2018-01-13 10:00:00 6.5 6 Este 43 Sudeste 1.2 -- -- 91
2018-01-13 09:00:00 6.3 19 Sur 43 Sur 3.2 -- -- 89
2018-01-13 08:00:00 6.4 16 Sur 32 Sur 1.4 -- -- 88
2018-01-13 07:00:00 4.1 3 Noroeste 24 Sudeste 0 -- -- 92
2018-01-13 06:00:00 6.4 10 Sudeste 23 Sudeste 0 -- -- 84
2018-01-13 05:00:00 3.2 2 Norte 6 Nordeste 0 -- -- 95
2018-01-13 04:00:00 2.8 0 Calma 9 Nordeste 0 -- -- 94
2018-01-13 03:00:00 2.5 2 Nordeste 8 Nordeste 0 -- -- 95
2018-01-13 02:00:00 1.9 0 Calma 7 Noroeste 0 -- -- 93
2018-01-13 01:00:00 2.6 0 Calma 5 Oeste 0 -- -- 90
2018-01-13 00:00:00 3.4 0 Calma 12 Sudeste 0 -- -- 88
2018-01-12 23:00:00 4.2 3 Sudeste 11 Sudeste 0 -- -- 89
2018-01-12 22:00:00 5.2 0 Calma 16 Sur 0 -- -- 82
2018-01-12 21:00:00 5.8 3 Norte 11 Sudeste 0 -- -- 79
2018-01-12 20:00:00 7.2 6 Sudeste 14 Sudeste 0 -- -- 71
2018-01-12 19:00:00 6.8 2 Sur 5 Sudeste 0 -- -- 74
2018-01-12 18:00:00 8.9 0 Calma 9 Sudoeste 0 -- -- 68
2018-01-12 17:00:00 10 5 Sudeste 14 Sudoeste 0 -- -- 62
2018-01-12 16:00:00 10.2 7 Sudoeste 14 Oeste 0 -- -- 59
2018-01-12 15:00:00 10.7 6 Sudoeste 14 Oeste 0 -- -- 59
2018-01-12 14:00:00 9.8 4 Sudeste 9 Sur 0 -- -- 65
2018-01-12 13:00:00 8.2 0 Calma 5 Nordeste 0 -- -- 77
2018-01-12 12:00:00 5.8 4 Nordeste 8 Nordeste 0 -- -- 83
2018-01-12 11:00:00 3.7 0 Calma 4 Oeste 0 -- -- 94
2018-01-12 10:00:00 1.5 0 Calma 4 Sur 0 -- -- 96
2018-01-12 09:00:00 0.2 0 Calma 3 Oeste 0 -- -- 93
2018-01-12 08:00:00 1.3 0 Calma 10 Sudoeste 0 -- -- 89
2018-01-12 07:00:00 0.4 0 Calma 10 Sudoeste 0 -- -- 92
2018-01-12 06:00:00 1.2 0 Calma 2 Sur 0 -- -- 90
2018-01-12 05:00:00 2.5 0 Calma 11 Sudoeste 0 -- -- 86
2018-01-12 04:00:00 4.1 8 Sudoeste 10 Sudoeste 0 -- -- 84
2018-01-12 03:00:00 3 0 Calma 8 Sudoeste 0 -- -- 84
2018-01-12 02:00:00 5.7 6 Sudoeste 21 Sudoeste 0 -- -- 75
2018-01-12 01:00:00 5.7 13 Sudoeste 22 Sudoeste 0 -- -- 76
2018-01-12 00:00:00 5.6 12 Sudoeste 19 Sudoeste 0 -- -- 78
2018-01-11 23:00:00 5.5 5 Oeste 12 Oeste 0 -- -- 78
2018-01-11 22:00:00 6.2 9 Sudoeste 14 Sudoeste 0 -- -- 76
2018-01-11 21:00:00 7.6 11 Sudoeste 17 Oeste 0 -- -- 70
2018-01-11 20:00:00 8.3 11 Oeste 19 Oeste 0 -- -- 69
2018-01-11 19:00:00 9.3 10 Sudoeste 19 Oeste 0 -- -- 65
2018-01-11 18:00:00 10.6 8 Oeste 24 Noroeste 0 -- -- 63
2018-01-11 17:00:00 11.6 11 Noroeste 21 Noroeste 0 -- -- 58
2018-01-11 16:00:00 11.7 9 Noroeste 22 Noroeste 0 -- -- 60
2018-01-11 15:00:00 12.2 18 Oeste 36 Oeste 0 -- -- 62
2018-01-11 14:00:00 11.9 17 Noroeste 30 Noroeste 0 -- -- 62
2018-01-11 13:00:00 11.3 16 Oeste 33 Oeste 0 -- -- 72
2018-01-11 12:00:00 11 18 Oeste 39 Oeste 0 -- -- 73
2018-01-11 11:00:00 10.3 16 Oeste 31 Oeste 0 -- -- 74
2018-01-11 10:00:00 9 19 Oeste 34 Oeste 0 -- -- 78
2018-01-11 09:00:00 8.3 20 Sudoeste 37 Sudoeste 0 -- -- 84
2018-01-11 08:00:00 8.3 21 Sudoeste 34 Sudoeste 0 -- -- 84
2018-01-11 07:00:00 8.5 17 Sudoeste 28 Oeste 0 -- -- 83
2018-01-11 06:00:00 8.3 15 Oeste 32 Oeste 0 -- -- 83
2018-01-11 05:00:00 8.3 17 Sudoeste 32 Sudoeste 0 -- -- 82
2018-01-11 04:00:00 7.9 16 Oeste 25 Sudoeste 0 -- -- 81
2018-01-11 03:00:00 8.1 18 Oeste 32 Sudoeste 0 -- -- 79
2018-01-11 02:00:00 7.5 17 Sudoeste 29 Sudoeste 0 -- -- 79
2018-01-11 01:00:00 7.5 15 Sudoeste 24 Sudoeste 0 -- -- 80
2018-01-11 00:00:00 7.4 16 Sudoeste 30 Sudoeste 0 -- -- 81
2018-01-10 23:00:00 7.5 17 Oeste 29 Oeste 0 -- -- 82
2018-01-10 22:00:00 7.4 11 Oeste 28 Oeste 0 -- -- 83
2018-01-10 21:00:00 8.1 16 Oeste 31 Sudoeste 0 -- -- 79
2018-01-10 20:00:00 8.6 10 Oeste 40 Oeste 0 -- -- 80
2018-01-10 19:00:00 10.1 26 Oeste 42 Oeste 0 -- -- 72
2018-01-10 18:00:00 10.6 15 Oeste 35 Oeste 0 -- -- 79
2018-01-10 17:00:00 11.5 21 Oeste 36 Sudoeste 0 -- -- 79
2018-01-10 16:00:00 11 17 Oeste 39 Sudoeste 1 -- -- 92
2018-01-10 15:00:00 11.6 17 Oeste 39 Oeste 0.4 -- -- 84
2018-01-10 14:00:00 11.4 15 Sudoeste 30 Sudoeste 0 -- -- 91
2018-01-10 13:00:00 10.1 18 Sur 36 Sudoeste 0 -- -- 94
2018-01-10 12:00:00 9.2 17 Sur 33 Sur 0 -- -- 94
2018-01-10 11:00:00 8 17 Sudoeste 26 Sudoeste 0 -- -- 98
2018-01-10 10:00:00 7.5 17 Sur 28 Sur 0 -- -- 97
2018-01-10 09:00:00 7.1 8 Sudoeste 17 Sudoeste 0 -- -- 96
2018-01-10 08:00:00 7.3 7 Sudoeste 13 Oeste 0 -- -- 99
2018-01-10 07:00:00 7.1 6 Sudoeste 15 Sudoeste 0 -- -- 99
2018-01-10 06:00:00 6.2 7 Sudoeste 12 Sudoeste 0 -- -- 100
2018-01-10 05:00:00 5.9 2 Oeste 8 Noroeste 0 -- -- 99
2018-01-10 04:00:00 5.9 5 Oeste 9 Oeste 0 -- -- 99
2018-01-10 03:00:00 6.3 7 Oeste 12 Oeste 0 -- -- 99
2018-01-10 02:00:00 6.3 4 Oeste 7 Noroeste 0 -- -- 98
2018-01-10 01:00:00 6.5 2 Noroeste 5 Noroeste 0 -- -- 98
2018-01-10 00:00:00 7.3 2 Nordeste 6 Este 0.2 -- -- 98
2018-01-09 23:00:00 7.6 0 Calma 5 Nordeste 0.4 -- -- 98
2018-01-09 22:00:00 7.5 0 Calma 6 Noroeste 0.2 -- -- 97
2018-01-09 21:00:00 7.7 3 Noroeste 13 Noroeste 0 -- -- 96
2018-01-09 20:00:00 8.3 4 Nordeste 21 Sudeste 0.4 -- -- 94
2018-01-09 19:00:00 8 4 Este 20 Este 1 -- -- 95
2018-01-09 18:00:00 7.8 9 Este 30 Este 0.6 -- -- 95
2018-01-09 17:00:00 7.5 11 Este 30 Este 0.6 -- -- 95
2018-01-09 16:00:00 6.4 8 Este 19 Este 0.2 -- -- 95
2018-01-09 15:00:00 6.5 9 Este 26 Este 0.2 -- -- 91
2018-01-09 14:00:00 6.4 8 Este 27 Sudeste 0.4 -- -- 88
2018-01-09 13:00:00 6.1 10 Sudeste 39 Sudeste 0 -- -- 83
2018-01-09 12:00:00 5.5 24 Sur 44 Sur 0.2 -- -- 85
2018-01-09 11:00:00 5.6 8 Este 20 Sudeste 0.2 -- -- 80
2018-01-09 10:00:00 5.6 5 Sur 26 Sudeste 0 -- -- 77
2018-01-09 09:00:00 5 6 Sur 34 Este 0 -- -- 81
2018-01-09 08:00:00 3.8 12 Sur 26 Sur 0 -- -- 90
2018-01-09 07:00:00 2.3 2 Norte 18 Sudeste 0 -- -- 86
2018-01-09 06:00:00 2.2 5 Sur 11 Sudoeste 0 -- -- 97
2018-01-09 05:00:00 0.3 3 Nordeste 5 Nordeste 0 -- -- 97
2018-01-09 04:00:00 0 0 Calma 5 Norte 0 -- -- 96
2018-01-09 03:00:00 -0.2 0 Calma 5 Nordeste 0 -- -- 96
2018-01-09 02:00:00 -0.1 0 Calma 3 Oeste 0 -- -- 94
2018-01-09 01:00:00 0.9 0 Calma 3 Noroeste 0 -- -- 93
2018-01-09 00:00:00 1.8 0 Calma 9 Sur 0 -- -- 89
2018-01-08 23:00:00 2.5 5 Sudoeste 9 Sudoeste 0 -- -- 90
2018-01-08 22:00:00 2.4 3 Sur 6 Sur 0 -- -- 89
2018-01-08 21:00:00 2.9 0 Calma 8 Sur 0 -- -- 88
2018-01-08 20:00:00 3.3 4 Sudeste 7 Sudeste 0 -- -- 88
2018-01-08 19:00:00 3.8 3 Sur 6 Sur 0 -- -- 86
2018-01-08 18:00:00 6 2 Sur 7 Nordeste 0 -- -- 80
2018-01-08 17:00:00 9.3 4 Nordeste 13 Norte 0 -- -- 63
2018-01-08 16:00:00 9 3 Este 14 Nordeste 0 -- -- 64
2018-01-08 15:00:00 9 7 Nordeste 16 Norte 0 -- -- 65
2018-01-08 14:00:00 8.4 8 Nordeste 20 Este 0 -- -- 73
2018-01-08 13:00:00 7.7 8 Nordeste 19 Este 0 -- -- 75
2018-01-08 12:00:00 6.3 6 Nordeste 12 Nordeste 0 -- -- 80
2018-01-08 11:00:00 5 4 Nordeste 10 Nordeste 0 -- -- 91
2018-01-08 10:00:00 3.7 0 Calma 12 Este 0 -- -- 95
2018-01-08 09:00:00 3.9 3 Este 6 Este 0 -- -- 96
2018-01-08 08:00:00 3.8 0 Calma 5 Norte 0 -- -- 96
2018-01-08 07:00:00 3.7 2 Este 11 Nordeste 0 -- -- 96
2018-01-08 06:00:00 3.8 9 Nordeste 16 Nordeste 0 -- -- 96
2018-01-08 05:00:00 3.8 9 Este 20 Este 0 -- -- 96
2018-01-08 04:00:00 3.9 6 Nordeste 20 Nordeste 0.2 -- -- 97
2018-01-08 03:00:00 3.4 3 Este 10 Este 0.4 -- -- 97
2018-01-08 02:00:00 3 5 Este 18 Nordeste 1.4 -- -- 96
2018-01-08 01:00:00 3.5 8 Este 17 Este 0.2 -- -- 95
2018-01-08 00:00:00 4.1 8 Este 17 Este 0.4 -- -- 92
2018-01-07 23:00:00 4.6 5 Sudeste 7 Este 1.2 -- -- 91
2018-01-07 22:00:00 4.8 0 Calma 3 Sudeste 3.6 -- -- 91
2018-01-07 21:00:00 5.1 0 Calma 10 Norte 1.2 -- -- 91
2018-01-07 20:00:00 5.8 4 Noroeste 24 Noroeste 0.2 -- -- 88
2018-01-07 19:00:00 6.7 11 Noroeste 24 Noroeste 0 -- -- 78
2018-01-07 18:00:00 7.6 8 Noroeste 18 Noroeste 0 -- -- 71
2018-01-07 17:00:00 7.7 9 Noroeste 18 Noroeste 0 -- -- 68
2018-01-07 16:00:00 7.7 7 Norte 22 Noroeste 0 -- -- 66
2018-01-07 15:00:00 8.1 10 Norte 23 Noroeste 0 -- -- 64
2018-01-07 14:00:00 8.5 13 Noroeste 25 Oeste 0 -- -- 62
2018-01-07 13:00:00 7.3 13 Noroeste 22 Noroeste 0 -- -- 66
2018-01-07 12:00:00 6.1 12 Oeste 22 Oeste 0 -- -- 68
2018-01-07 11:00:00 5.4 7 Noroeste 14 Noroeste 0 -- -- 72
2018-01-07 10:00:00 4.5 8 Oeste 19 Oeste 0 -- -- 73
2018-01-07 09:00:00 4.2 10 Oeste 19 Oeste 0 -- -- 73
2018-01-07 08:00:00 4.1 10 Oeste 20 Oeste 0 -- -- 73
2018-01-07 07:00:00 4.2 7 Noroeste 23 Oeste 0 -- -- 74
2018-01-07 06:00:00 4.1 8 Oeste 21 Sudoeste 0 -- -- 73
2018-01-07 05:00:00 4.3 12 Oeste 24 Oeste 0 -- -- 72
2018-01-07 04:00:00 4.3 12 Oeste 20 Oeste 0 -- -- 71
2018-01-07 03:00:00 4.2 10 Oeste 19 Oeste 0 -- -- 72
2018-01-07 02:00:00 4.7 12 Oeste 24 Oeste 0 -- -- 71
2018-01-07 01:00:00 5 14 Oeste 28 Noroeste 0 -- -- 69
2018-01-07 00:00:00 4.8 10 Oeste 23 Oeste 0 -- -- 71
2018-01-06 23:00:00 4.3 11 Sudoeste 18 Oeste 0 -- -- 73
2018-01-06 22:00:00 4.3 13 Oeste 26 Oeste 0 -- -- 73
2018-01-06 21:00:00 4.8 10 Oeste 20 Oeste 0 -- -- 70
2018-01-06 20:00:00 4.9 3 Oeste 10 Noroeste 0 -- -- 70
2018-01-06 19:00:00 6.1 3 Noroeste 13 Noroeste 0 -- -- 66
2018-01-06 18:00:00 8.1 13 Noroeste 30 Noroeste 0 -- -- 58
2018-01-06 17:00:00 9.4 19 Noroeste 35 Noroeste 0 -- -- 49
2018-01-06 16:00:00 9.7 17 Noroeste 36 Noroeste 0 -- -- 54
2018-01-06 15:00:00 9.2 17 Noroeste 34 Noroeste 0 -- -- 61
2018-01-06 14:00:00 8.5 18 Noroeste 33 Noroeste 0.2 -- -- 63
2018-01-06 13:00:00 7.8 18 Noroeste 33 Oeste 0 -- -- 66
2018-01-06 12:00:00 6.6 14 Noroeste 26 Noroeste 0 -- -- 75
2018-01-06 11:00:00 5.1 10 Oeste 18 Oeste 0 -- -- 81
2018-01-06 10:00:00 4.4 10 Oeste 21 Oeste 0 -- -- 84
2018-01-06 09:00:00 4.5 6 Oeste 16 Oeste 0 -- -- 87
2018-01-06 08:00:00 4.4 4 Sudoeste 8 Sudoeste 0 -- -- 90
2018-01-06 07:00:00 5.1 4 Oeste 14 Oeste 0 -- -- 89
2018-01-06 06:00:00 5.5 9 Oeste 14 Oeste 0 -- -- 90
2018-01-06 05:00:00 5.5 5 Oeste 13 Oeste 0 -- -- 92
2018-01-06 04:00:00 5.9 9 Oeste 19 Oeste 0 -- -- 91
2018-01-06 03:00:00 6.5 8 Oeste 15 Oeste 0 -- -- 94
2018-01-06 02:00:00 7.3 4 Oeste 13 Oeste 0 -- -- 96
2018-01-06 01:00:00 7.8 6 Oeste 9 Oeste 0 -- -- 96
2018-01-06 00:00:00 7.7 5 Oeste 12 Oeste 0 -- -- 96
2018-01-05 23:00:00 7.7 4 Oeste 14 Este 0 -- -- 95
2018-01-05 22:00:00 8 4 Este 12 Sudeste 0 -- -- 92
2018-01-05 21:00:00 8.3 9 Este 15 Este 2.4 -- -- 91
2018-01-05 20:00:00 8.6 7 Norte 21 Noroeste 3.6 -- -- 95
2018-01-05 19:00:00 9.3 10 Sudoeste 29 Oeste 2.6 -- -- 94
2018-01-05 18:00:00 10.1 11 Sur 26 Sudoeste 0.6 -- -- 94
2018-01-05 17:00:00 10.4 17 Sur 28 Sur 2 -- -- 93
2018-01-05 16:00:00 10.8 12 Sudoeste 27 Sudoeste 1 -- -- 91
2018-01-05 15:00:00 11 15 Sudoeste 38 Sudoeste 2.2 -- -- 94
2018-01-05 14:00:00 11 14 Sudoeste 30 Sudoeste 1.4 -- -- 95
2018-01-05 13:00:00 10.8 12 Sudoeste 32 Sur 0.6 -- -- 94
2018-01-05 12:00:00 10.9 19 Sur 35 Sur 0.8 -- -- 94
2018-01-05 11:00:00 10.8 20 Sur 41 Sur 0 -- -- 92
2018-01-05 10:00:00 10.9 21 Sur 39 Sudoeste 0 -- -- 91
2018-01-05 09:00:00 10.7 20 Sur 49 Sur 0 -- -- 90
2018-01-05 08:00:00 10.7 27 Sur 46 Sur 0 -- -- 90
2018-01-05 07:00:00 10.6 25 Sur 39 Sur 0 -- -- 91
2018-01-05 06:00:00 10.7 19 Sur 32 Sur 0 -- -- 90
2018-01-05 05:00:00 10.7 11 Sudoeste 22 Sudoeste 0 -- -- 91
2018-01-05 04:00:00 10.7 11 Sudoeste 21 Oeste 0 -- -- 90
2018-01-05 03:00:00 11.1 10 Sudoeste 23 Sudoeste 0 -- -- 86
2018-01-05 02:00:00 11.6 15 Sudoeste 25 Sudoeste 0 -- -- 83
2018-01-05 01:00:00 12.2 10 Sudoeste 19 Sudoeste 0 -- -- 87
2018-01-05 00:00:00 12.5 7 Sudoeste 17 Sudoeste 0 -- -- 84
2018-01-04 23:00:00 12.6 8 Sudoeste 17 Sudoeste 0 -- -- 87
2018-01-04 22:00:00 12.4 12 Sudoeste 22 Sudoeste 0 -- -- 86
2018-01-04 21:00:00 12.6 12 Sudoeste 23 Sudoeste 0 -- -- 84
2018-01-04 20:00:00 13 12 Sudoeste 22 Sudoeste 0 -- -- 79
2018-01-04 19:00:00 13.7 12 Sudoeste 19 Sudoeste 0 -- -- 73
2018-01-04 18:00:00 14.9 8 Sudoeste 23 Oeste 0 -- -- 67
2018-01-04 17:00:00 15.1 13 Oeste 28 Oeste 0 -- -- 67
2018-01-04 16:00:00 15.4 18 Oeste 29 Oeste 0 -- -- 63
2018-01-04 15:00:00 15.7 19 Oeste 30 Oeste 0 -- -- 65
2018-01-04 14:00:00 15.2 15 Oeste 25 Oeste 0 -- -- 72
2018-01-04 13:00:00 14.4 12 Oeste 27 Oeste 0 -- -- 82
2018-01-04 12:00:00 13.4 10 Sudoeste 17 Sur 0 -- -- 89
2018-01-04 11:00:00 10.1 2 Noroeste 21 Sudoeste 0 -- -- 93
2018-01-04 10:00:00 10.5 7 Sudoeste 17 Oeste 0 -- -- 99
2018-01-04 09:00:00 6.1 4 Oeste 12 Sur 0 -- -- 95
2018-01-04 08:00:00 6.7 0 Calma 13 Sudoeste 0 -- -- 94
2018-01-04 07:00:00 11.4 16 Sudoeste 22 Sudoeste 0 -- -- 90
2018-01-04 06:00:00 11.3 11 Sudoeste 18 Oeste 0 -- -- 95
2018-01-04 05:00:00 11.5 8 Sudoeste 13 Sudoeste 0 -- -- 91
2018-01-04 04:00:00 11.6 8 Sudoeste 15 Sudoeste 0 -- -- 92
2018-01-04 03:00:00 12 10 Sudoeste 20 Sudoeste 0 -- -- 91
2018-01-04 02:00:00 12.5 11 Sudoeste 16 Sudoeste 0 -- -- 91
2018-01-04 01:00:00 12.9 12 Sudoeste 18 Sudoeste 0 -- -- 89
2018-01-04 00:00:00 13.1 11 Sudoeste 22 Oeste 0 -- -- 90
2018-01-03 23:00:00 13.3 10 Sudoeste 18 Oeste 0 -- -- 89
2018-01-03 22:00:00 13.7 8 Sudoeste 14 Oeste 0 -- -- 87
2018-01-03 21:00:00 14 9 Oeste 17 Oeste 0 -- -- 87
2018-01-03 20:00:00 14.4 10 Sudoeste 19 Sudoeste 0 -- -- 85
2018-01-03 19:00:00 15.2 10 Oeste 20 Oeste 0 -- -- 82
2018-01-03 18:00:00 16.1 7 Sudoeste 13 Sudoeste 0 -- -- 78
2018-01-03 17:00:00 16.3 7 Sudoeste 14 Sudoeste 0 -- -- 77
2018-01-03 16:00:00 16.1 5 Oeste 11 Oeste 0 -- -- 79
2018-01-03 15:00:00 15.5 4 Oeste 12 Noroeste 0 -- -- 81
2018-01-03 14:00:00 14.7 5 Noroeste 12 Norte 0 -- -- 84
2018-01-03 13:00:00 13.9 6 Noroeste 15 Noroeste 0 -- -- 87
2018-01-03 12:00:00 13.1 8 Oeste 15 Oeste 0 -- -- 91
2018-01-03 11:00:00 12.4 5 Oeste 12 Oeste 0 -- -- 95
2018-01-03 10:00:00 12.1 4 Oeste 9 Oeste 0 -- -- 95
2018-01-03 09:00:00 12.1 6 Sudoeste 12 Oeste 0 -- -- 94
2018-01-03 08:00:00 12.3 8 Oeste 15 Oeste 0 -- -- 93
2018-01-03 07:00:00 12.4 0 Calma 9 Oeste 0 -- -- 93
2018-01-03 06:00:00 12.3 6 Oeste 15 Oeste 0 -- -- 93
2018-01-03 05:00:00 12.2 0 Calma 5 Sudoeste 0 -- -- 93
2018-01-03 04:00:00 12.2 3 Sudoeste 13 Oeste 0 -- -- 93
2018-01-03 03:00:00 12.2 4 Oeste 11 Sudoeste 0 -- -- 92
2018-01-03 02:00:00 12.4 9 Oeste 17 Sudoeste 0 -- -- 91
2018-01-03 01:00:00 12.4 12 Oeste 23 Oeste 0 -- -- 91
2018-01-03 00:00:00 12.3 14 Sudoeste 26 Oeste 0 -- -- 90
2018-01-02 23:00:00 12.6 12 Sudoeste 21 Sudoeste 0 -- -- 87
2018-01-02 22:00:00 12.8 8 Oeste 20 Oeste 0 -- -- 85
2018-01-02 21:00:00 13.4 13 Sudoeste 21 Sudoeste 0 -- -- 82
2018-01-02 20:00:00 13.3 8 Oeste 16 Sudoeste 0 -- -- 82
2018-01-02 19:00:00 13.4 9 Sudoeste 21 Oeste 0 -- -- 80
2018-01-02 18:00:00 13.6 8 Oeste 19 Oeste 0 -- -- 79
2018-01-02 17:00:00 13.9 13 Oeste 23 Oeste 0 -- -- 77
2018-01-02 16:00:00 13.7 15 Oeste 33 Oeste 0 -- -- 78
2018-01-02 15:00:00 13.3 20 Oeste 33 Oeste 0 -- -- 78
2018-01-02 14:00:00 13.8 19 Oeste 32 Oeste 0 -- -- 75
2018-01-02 13:00:00 13.2 16 Oeste 27 Noroeste 0 -- -- 78
2018-01-02 12:00:00 12.1 12 Oeste 22 Oeste 0 -- -- 83
2018-01-02 11:00:00 10.9 10 Oeste 17 Oeste 0 -- -- 84
2018-01-02 10:00:00 10.1 12 Sudoeste 18 Sudoeste 0 -- -- 85
2018-01-02 09:00:00 9.6 11 Sudoeste 23 Sudoeste 0 -- -- 86
2018-01-02 08:00:00 9.2 14 Sudoeste 27 Oeste 0 -- -- 84
2018-01-02 07:00:00 9.2 10 Sudoeste 22 Sudoeste 0 -- -- 86
2018-01-02 06:00:00 9.6 10 Sudoeste 31 Sudoeste 0 -- -- 85
2018-01-02 05:00:00 9.5 15 Sudoeste 24 Sudoeste 0 -- -- 85
2018-01-02 04:00:00 9.9 15 Sudoeste 23 Oeste 0 -- -- 83
2018-01-02 03:00:00 9.6 13 Sudoeste 24 Oeste 0 -- -- 85
2018-01-02 02:00:00 9.8 13 Sudoeste 23 Sudoeste 0 -- -- 83
2018-01-02 01:00:00 10.2 15 Sudoeste 26 Sudoeste 0 -- -- 82
2018-01-02 00:00:00 9.9 17 Sudoeste 30 Sudoeste 0 -- -- 85
2018-01-01 23:00:00 10.3 15 Sudoeste 26 Sudoeste 0 -- -- 85
2018-01-01 22:00:00 10.5 13 Sudoeste 26 Oeste 0 -- -- 82
2018-01-01 21:00:00 10.7 14 Sudoeste 26 Sudoeste 0 -- -- 81
2018-01-01 20:00:00 11.2 15 Sudoeste 24 Sudoeste 0 -- -- 78
2018-01-01 19:00:00 11.7 15 Sudoeste 24 Sudoeste 0 -- -- 76
2018-01-01 18:00:00 12.5 13 Sudoeste 24 Oeste 0 -- -- 74
2018-01-01 17:00:00 12.9 17 Oeste 28 Oeste 0 -- -- 72
2018-01-01 16:00:00 13.1 14 Oeste 32 Oeste 0 -- -- 71
2018-01-01 15:00:00 13.5 21 Oeste 32 Oeste 0 -- -- 67
2018-01-01 14:00:00 13.1 21 Oeste 35 Oeste 0 -- -- 66
2018-01-01 13:00:00 12.4 10 Oeste 19 Oeste 0 -- -- 73
2018-01-01 12:00:00 10.3 7 Oeste 17 Sudoeste 0 -- -- 81
2018-01-01 11:00:00 6.8 2 Norte 5 Norte 0 -- -- 90
2018-01-01 10:00:00 2.9 0 Calma 21 Sudoeste 0 -- -- 92
2018-01-01 09:00:00 2.1 2 Nordeste 9 Este 0 -- -- 97
2018-01-01 08:00:00 0.8 0 Calma 4 Noroeste 0 -- -- 95
2018-01-01 07:00:00 1.9 0 Calma 7 Oeste 0 -- -- 95
2018-01-01 06:00:00 2.7 2 Este 5 Oeste 0 -- -- 95
2018-01-01 05:00:00 3.3 0 Calma 2 Sur 0 -- -- 93
2018-01-01 04:00:00 4.3 0 Calma 5 Oeste 0 -- -- 89
2018-01-01 03:00:00 6.3 3 Noroeste 15 Sudoeste 0 -- -- 84
2018-01-01 02:00:00 8 7 Sudoeste 17 Sudoeste 0 -- -- 79
2018-01-01 01:00:00 9 13 Sudoeste 20 Sudoeste 0 -- -- 77
2018-01-01 00:00:00 9 10 Sudoeste 19 Sudoeste 0 -- -- 79
2017-12-31 23:00:00 8.9 9 Sudoeste 19 Sudoeste 0 -- -- 80
2017-12-31 22:00:00 9.6 12 Sudoeste 24 Oeste 0 -- -- 81
2017-12-31 21:00:00 10 16 Sudoeste 25 Oeste 0 -- -- 83
2017-12-31 20:00:00 10 13 Sudoeste 23 Oeste 0 -- -- 86
2017-12-31 19:00:00 10.8 11 Sudoeste 22 Oeste 0 -- -- 83
2017-12-31 18:00:00 11.1 12 Oeste 35 Oeste 0 -- -- 84
2017-12-31 17:00:00 12.2 15 Oeste 28 Oeste 0 -- -- 83
2017-12-31 16:00:00 11.9 21 Oeste 50 Oeste 1.8 -- -- 89
2017-12-31 15:00:00 13.4 22 Sudoeste 42 Sudoeste 0 -- -- 82
2017-12-31 14:00:00 12.8 14 Sudoeste 33 Sudoeste 0 -- -- 80
2017-12-31 13:00:00 12.4 19 Sudoeste 37 Sudoeste 0 -- -- 81
2017-12-31 12:00:00 10.5 19 Sur 36 Sur 0 -- -- 87
2017-12-31 11:00:00 10.4 19 Sur 39 Sur 0 -- -- 87
2017-12-31 10:00:00 10.3 23 Sur 36 Sudeste 0 -- -- 86
2017-12-31 09:00:00 10.4 18 Sur 29 Sur 0 -- -- 85
2017-12-31 08:00:00 10.2 10 Sudoeste 21 Sur 0 -- -- 86
2017-12-31 07:00:00 10.6 11 Sudoeste 21 Sudoeste 0 -- -- 84
2017-12-31 06:00:00 10.9 12 Sudoeste 21 Sudoeste 0 -- -- 84
2017-12-31 05:00:00 9.7 6 Sudoeste 19 Sur 0 -- -- 88
2017-12-31 04:00:00 11.3 10 Sur 15 Sur 0 -- -- 81
2017-12-31 03:00:00 11.8 6 Sudoeste 14 Sudoeste 0 -- -- 79
2017-12-31 02:00:00 12.6 10 Sudoeste 18 Sur 0 -- -- 77
2017-12-31 01:00:00 10.8 4 Sudeste 10 Sudoeste 0 -- -- 86